createdAt,value
2023-01-19T00:01:32.662Z,2.81
2023-01-19T00:04:00.122Z,2.86
2023-01-19T00:06:27.961Z,2.84
2023-01-19T00:08:55.490Z,2.69
2023-01-19T00:11:23.055Z,2.71
2023-01-19T00:13:51.114Z,2.71
2023-01-19T00:16:22.804Z,2.70
2023-01-19T00:18:51.962Z,2.62
2023-01-19T00:21:21.434Z,2.54
2023-01-19T00:23:51.119Z,2.52
2023-01-19T00:26:19.142Z,2.64
2023-01-19T00:28:47.134Z,2.64
2023-01-19T00:31:14.686Z,2.56
2023-01-19T00:33:43.592Z,2.71
2023-01-19T00:36:11.462Z,2.74
2023-01-19T00:38:39.633Z,2.68
2023-01-19T00:41:07.345Z,2.56
2023-01-19T00:43:34.051Z,2.57
2023-01-19T00:46:01.751Z,2.56
2023-01-19T00:48:29.450Z,2.56
2023-01-19T00:50:59.908Z,2.61
2023-01-19T00:53:29.097Z,2.64
2023-01-19T00:55:56.581Z,2.62
2023-01-19T00:58:24.080Z,2.61
2023-01-19T01:00:54.711Z,2.62
2023-01-19T01:03:28.080Z,2.68
2023-01-19T01:05:55.764Z,2.79
2023-01-19T01:08:24.775Z,2.96
2023-01-19T01:10:52.495Z,2.80
2023-01-19T01:13:22.332Z,2.66
2023-01-19T01:15:50.761Z,2.49
2023-01-19T01:18:18.310Z,2.56
2023-01-19T01:20:45.823Z,2.62
2023-01-19T01:23:14.057Z,2.72
2023-01-19T01:25:43.410Z,2.60
2023-01-19T01:28:11.181Z,2.76
2023-01-19T01:30:40.897Z,2.85
2023-01-19T01:33:08.658Z,2.73
2023-01-19T01:35:36.354Z,2.84
2023-01-19T01:38:04.349Z,2.85
2023-01-19T01:40:31.934Z,2.98
2023-01-19T01:43:02.636Z,2.93
2023-01-19T01:45:33.835Z,2.91
2023-01-19T01:48:09.486Z,2.92
2023-01-19T01:51:02.657Z,3.04
2023-01-19T01:53:31.688Z,2.93
2023-01-19T01:56:00.918Z,2.90
2023-01-19T01:58:29.846Z,2.86
2023-01-19T02:01:15.086Z,2.76
2023-01-19T02:03:42.729Z,2.82
2023-01-19T02:06:11.207Z,2.90
2023-01-19T02:09:02.465Z,3.03
2023-01-19T02:11:49.108Z,3.09
2023-01-19T02:14:18.898Z,2.83
2023-01-19T02:16:47.095Z,2.81
2023-01-19T02:19:19.200Z,2.67
2023-01-19T02:21:53.940Z,2.78
2023-01-19T02:24:23.513Z,2.68
2023-01-19T02:26:52.091Z,2.64
2023-01-19T02:29:21.834Z,2.81
2023-01-19T02:31:49.348Z,2.95
2023-01-19T02:34:19.766Z,3.05
2023-01-19T02:36:53.337Z,3.08
2023-01-19T02:39:29.002Z,3.14
2023-01-19T02:42:02.668Z,3.13
2023-01-19T02:44:31.518Z,2.93
2023-01-19T02:46:59.050Z,2.88
2023-01-19T02:49:29.624Z,2.88
2023-01-19T02:51:57.333Z,2.84
2023-01-19T02:54:48.454Z,2.97
2023-01-19T02:57:32.468Z,2.86
2023-01-19T03:00:13.475Z,2.87
2023-01-19T03:02:53.378Z,2.89
2023-01-19T03:05:34.024Z,2.98
2023-01-19T03:08:09.169Z,2.92
2023-01-19T03:10:47.049Z,2.93
2023-01-19T03:13:19.959Z,2.97
2023-01-19T03:15:51.038Z,2.84
2023-01-19T03:18:23.356Z,2.94
2023-01-19T03:20:54.122Z,2.74
2023-01-19T03:23:25.932Z,2.81
2023-01-19T03:25:57.810Z,2.83
2023-01-19T03:28:28.230Z,2.88
2023-01-19T03:30:59.905Z,2.96
2023-01-19T03:33:30.509Z,2.91
2023-01-19T03:36:03.489Z,2.99
2023-01-19T03:38:36.226Z,2.80
2023-01-19T03:41:10.638Z,2.60
2023-01-19T03:43:39.929Z,2.57
2023-01-19T03:46:09.128Z,2.51
2023-01-19T03:48:36.975Z,2.61
2023-01-19T03:51:05.658Z,2.76
2023-01-19T03:53:33.398Z,2.80
2023-01-19T03:56:00.936Z,2.73
2023-01-19T03:58:30.018Z,2.68
2023-01-19T04:00:57.984Z,2.76
2023-01-19T04:03:25.530Z,2.77
2023-01-19T04:05:53.088Z,2.67
2023-01-19T04:08:20.592Z,2.76
2023-01-19T04:10:48.082Z,2.73
2023-01-19T04:13:15.562Z,2.79
2023-01-19T04:15:44.420Z,2.86
2023-01-19T04:18:11.951Z,2.74
2023-01-19T04:20:39.459Z,2.66
2023-01-19T04:23:07.231Z,2.64
2023-01-19T04:25:34.720Z,2.62
2023-01-19T04:28:02.183Z,2.63
2023-01-19T04:30:29.656Z,2.69
2023-01-19T04:33:00.161Z,2.55
2023-01-19T04:35:28.542Z,2.60
2023-01-19T04:37:56.058Z,2.51
2023-01-19T04:40:23.725Z,2.51
2023-01-19T04:42:51.222Z,2.44
2023-01-19T04:45:18.937Z,2.41
2023-01-19T04:47:46.390Z,2.35
2023-01-19T04:50:15.187Z,2.30
2023-01-19T04:52:42.663Z,2.22
2023-01-19T04:55:11.210Z,2.28
2023-01-19T04:57:38.848Z,2.20
2023-01-19T05:00:07.659Z,1.99
2023-01-19T05:02:35.687Z,2.00
2023-01-19T05:05:03.723Z,2.00
2023-01-19T05:07:32.670Z,1.96
2023-01-19T05:10:00.131Z,1.92
2023-01-19T05:12:27.766Z,1.98
2023-01-19T05:14:55.234Z,2.01
2023-01-19T05:17:22.708Z,1.99
2023-01-19T05:19:50.417Z,2.04
2023-01-19T05:22:18.137Z,2.06
2023-01-19T05:24:46.961Z,2.07
2023-01-19T05:27:14.418Z,2.10
2023-01-19T05:29:42.033Z,2.12
2023-01-19T05:32:09.504Z,2.09
2023-01-19T05:34:37.105Z,1.87
2023-01-19T05:37:04.599Z,1.82
2023-01-19T05:39:32.138Z,1.98
2023-01-19T05:42:01.012Z,1.98
2023-01-19T05:44:28.485Z,2.01
2023-01-19T05:46:56.432Z,2.22
2023-01-19T05:49:23.943Z,2.30
2023-01-19T05:51:51.404Z,2.18
2023-01-19T05:54:18.902Z,2.11
2023-01-19T05:56:46.560Z,2.05
2023-01-19T05:59:17.384Z,2.13
2023-01-19T06:01:45.095Z,2.06
2023-01-19T06:04:12.600Z,2.00
2023-01-19T06:06:40.324Z,2.02
2023-01-19T06:09:08.243Z,1.96
2023-01-19T06:11:35.696Z,1.82
2023-01-19T06:14:03.352Z,1.67
2023-01-19T06:16:32.308Z,1.61
2023-01-19T06:19:00.243Z,1.71
2023-01-19T06:21:27.726Z,1.95
2023-01-19T06:23:55.209Z,2.09
2023-01-19T06:26:22.713Z,2.20
2023-01-19T06:28:53.287Z,2.24
2023-01-19T06:31:20.857Z,2.42
2023-01-19T06:33:50.216Z,2.38
2023-01-19T06:36:17.683Z,2.32
2023-01-19T06:38:45.183Z,2.31
2023-01-19T06:41:12.727Z,2.37
2023-01-19T06:43:40.193Z,2.45
2023-01-19T06:46:07.818Z,2.42
2023-01-19T06:48:35.295Z,2.36
2023-01-19T06:51:05.886Z,2.21
2023-01-19T06:53:33.946Z,2.23
2023-01-19T06:56:03.955Z,2.53
2023-01-19T06:58:34.663Z,2.48
2023-01-19T07:01:03.175Z,2.41
2023-01-19T07:03:31.328Z,2.66
2023-01-19T07:06:02.202Z,2.76
2023-01-19T07:08:31.197Z,2.68
2023-01-19T07:11:23.612Z,2.79
2023-01-19T07:13:51.444Z,2.81
2023-01-19T07:16:19.551Z,2.61
2023-01-19T07:18:49.800Z,2.65
2023-01-19T07:21:17.559Z,2.60
2023-01-19T07:23:49.172Z,2.55
2023-01-19T07:26:18.557Z,2.61
2023-01-19T07:28:47.407Z,2.49
2023-01-19T07:31:16.433Z,2.37
2023-01-19T07:33:44.065Z,2.27
2023-01-19T07:36:12.110Z,2.50
2023-01-19T07:38:39.636Z,2.43
2023-01-19T07:41:10.339Z,2.54
2023-01-19T07:43:37.884Z,2.36
2023-01-19T07:46:06.711Z,2.34
2023-01-19T07:48:34.578Z,2.26
2023-01-19T07:51:05.217Z,2.27
2023-01-19T07:53:32.870Z,2.42
2023-01-19T07:56:00.568Z,2.42
2023-01-19T07:58:30.397Z,2.42
2023-01-19T08:00:58.079Z,2.34
2023-01-19T08:03:25.696Z,2.43
2023-01-19T08:05:54.282Z,2.13
2023-01-19T08:08:21.962Z,2.36
2023-01-19T08:10:51.343Z,2.09
2023-01-19T08:13:18.999Z,2.28
2023-01-19T08:15:50.575Z,2.03
2023-01-19T08:18:18.469Z,1.90
2023-01-19T08:20:46.915Z,1.99
2023-01-19T08:23:14.394Z,2.24
2023-01-19T08:25:45.131Z,2.16
2023-01-19T08:28:14.590Z,2.24
2023-01-19T08:30:43.836Z,2.47
2023-01-19T08:33:12.900Z,2.60
2023-01-19T08:35:41.868Z,2.76
2023-01-19T08:38:10.835Z,2.62
2023-01-19T08:40:40.163Z,2.73
2023-01-19T08:43:09.546Z,2.66
2023-01-19T08:45:37.927Z,2.60
2023-01-19T08:48:06.243Z,2.61
2023-01-19T08:50:35.541Z,2.27
2023-01-19T08:53:06.535Z,2.23
2023-01-19T08:55:35.111Z,2.36
2023-01-19T08:58:04.121Z,2.50
2023-01-19T09:00:33.597Z,2.51
2023-01-19T09:03:03.947Z,2.60
2023-01-19T09:05:35.461Z,2.46
2023-01-19T09:08:05.119Z,2.43
2023-01-19T09:10:35.837Z,2.45
2023-01-19T09:13:04.196Z,2.30
2023-01-19T09:15:33.811Z,2.45
2023-01-19T09:18:02.281Z,2.52
2023-01-19T09:20:30.976Z,2.32
2023-01-19T09:22:59.305Z,2.36
2023-01-19T09:25:28.605Z,2.30
2023-01-19T09:27:56.141Z,2.06
2023-01-19T09:30:23.674Z,2.27
2023-01-19T09:32:51.150Z,2.19
2023-01-19T09:35:18.650Z,2.14
2023-01-19T09:37:47.235Z,2.27
2023-01-19T09:40:17.214Z,2.57
2023-01-19T09:42:51.576Z,2.32
2023-01-19T09:45:23.868Z,2.52
2023-01-19T09:47:53.130Z,2.67
2023-01-19T09:50:28.364Z,2.42
2023-01-19T09:53:01.305Z,2.24
2023-01-19T09:55:29.405Z,2.45
2023-01-19T09:57:58.735Z,2.47
2023-01-19T10:00:29.656Z,2.80
2023-01-19T10:03:04.019Z,2.65
2023-01-19T10:05:38.202Z,2.62
2023-01-19T10:08:22.866Z,2.80
2023-01-19T10:10:54.938Z,2.98
2023-01-19T10:13:38.909Z,2.38
2023-01-19T10:16:20.090Z,2.60
2023-01-19T10:18:51.485Z,2.74
2023-01-19T10:21:21.975Z,2.80
2023-01-19T10:23:54.549Z,2.86
2023-01-19T10:26:26.327Z,2.98
2023-01-19T10:29:02.867Z,2.75
2023-01-19T10:31:30.570Z,2.94
2023-01-19T10:33:58.895Z,3.07
2023-01-19T10:36:30.383Z,2.88
2023-01-19T10:38:59.049Z,2.78
2023-01-19T10:41:32.541Z,2.79
2023-01-19T10:44:02.880Z,2.80
2023-01-19T10:46:38.269Z,2.58
2023-01-19T10:49:07.759Z,2.63
2023-01-19T10:51:45.318Z,2.78
2023-01-19T10:54:14.246Z,2.58
2023-01-19T10:56:42.107Z,2.72
2023-01-19T10:59:33.873Z,3.00
2023-01-19T11:02:17.440Z,3.08
2023-01-19T11:04:48.997Z,3.26
2023-01-19T11:07:21.415Z,2.97
2023-01-19T11:09:49.849Z,3.13
2023-01-19T11:12:21.922Z,3.12
2023-01-19T11:14:54.117Z,3.13
2023-01-19T11:17:25.043Z,3.25
2023-01-19T11:20:01.112Z,3.21
2023-01-19T11:22:31.319Z,3.05
2023-01-19T11:25:01.461Z,3.18
2023-01-19T11:27:30.953Z,3.10
2023-01-19T11:30:09.662Z,3.19
2023-01-19T11:32:37.869Z,3.03
2023-01-19T11:35:33.005Z,2.98
2023-01-19T11:38:08.362Z,3.20
2023-01-19T11:40:36.608Z,3.42
2023-01-19T11:43:04.234Z,3.25
2023-01-19T11:45:34.983Z,3.46
2023-01-19T11:48:05.894Z,3.29
2023-01-19T11:50:39.834Z,3.43
2023-01-19T11:53:14.240Z,3.63
2023-01-19T11:55:50.013Z,3.80
2023-01-19T11:58:19.168Z,3.61
2023-01-19T12:00:52.434Z,3.56
2023-01-19T12:03:24.800Z,3.63
2023-01-19T12:05:56.325Z,3.73
2023-01-19T12:08:26.873Z,3.81
2023-01-19T12:10:57.843Z,3.96
2023-01-19T12:13:27.616Z,3.88
2023-01-19T12:16:01.921Z,3.93
2023-01-19T12:18:33.488Z,3.74
2023-01-19T12:21:03.921Z,3.73
2023-01-19T12:23:44.851Z,3.82
2023-01-19T12:26:28.220Z,4.04
2023-01-19T12:29:00.963Z,3.95
2023-01-19T12:31:30.012Z,3.83
2023-01-19T12:34:32.057Z,3.87
2023-01-19T12:37:04.598Z,3.76
2023-01-19T12:39:33.178Z,3.88
2023-01-19T12:42:13.543Z,3.92
2023-01-19T12:44:42.580Z,3.78
2023-01-19T12:47:24.127Z,3.63
2023-01-19T12:49:54.942Z,3.87
2023-01-19T12:52:30.691Z,4.00
2023-01-19T12:55:15.235Z,3.91
2023-01-19T12:57:50.138Z,3.63
2023-01-19T13:00:39.515Z,3.17
2023-01-19T13:03:40.480Z,3.60
2023-01-19T13:06:09.328Z,3.58
2023-01-19T13:08:58.638Z,3.59
2023-01-19T13:11:29.357Z,3.50
2023-01-19T13:14:34.769Z,3.52
2023-01-19T13:17:27.873Z,3.27
2023-01-19T13:20:24.029Z,3.23
2023-01-19T13:23:21.315Z,3.74
2023-01-19T13:25:54.413Z,3.80
2023-01-19T13:28:31.279Z,3.82
2023-01-19T13:31:02.503Z,3.93
2023-01-19T13:33:40.653Z,3.79
2023-01-19T13:36:19.596Z,3.91
2023-01-19T13:38:48.478Z,3.96
2023-01-19T13:41:19.869Z,3.88
2023-01-19T13:43:49.320Z,3.99
2023-01-19T13:46:18.961Z,4.00
2023-01-19T13:48:56.169Z,4.06
2023-01-19T13:51:24.011Z,4.03
2023-01-19T13:53:55.502Z,4.02
2023-01-19T13:56:27.691Z,4.00
2023-01-19T13:59:06.900Z,4.08
2023-01-19T14:01:34.611Z,4.15
2023-01-19T14:04:02.264Z,4.27
2023-01-19T14:06:36.108Z,4.15
2023-01-19T14:09:08.172Z,4.23
2023-01-19T14:11:37.150Z,4.29
2023-01-19T14:14:04.737Z,4.24
2023-01-19T14:16:32.265Z,4.17
2023-01-19T14:19:01.151Z,4.05
2023-01-19T14:21:39.163Z,4.11
2023-01-19T14:24:08.824Z,4.25
2023-01-19T14:26:48.721Z,4.32
2023-01-19T14:29:19.549Z,4.34
2023-01-19T14:31:49.009Z,4.50
2023-01-19T14:34:38.618Z,4.53
2023-01-19T14:37:14.148Z,4.55
2023-01-19T14:39:47.032Z,4.59
2023-01-19T14:42:21.589Z,4.62
2023-01-19T14:44:52.175Z,4.65
2023-01-19T14:47:34.029Z,4.64
2023-01-19T14:50:07.421Z,4.71
2023-01-19T14:52:39.293Z,4.72
2023-01-19T14:55:09.965Z,4.64
2023-01-19T14:57:39.049Z,4.64
2023-01-19T15:00:17.362Z,4.61
2023-01-19T15:02:45.424Z,4.58
2023-01-19T15:05:13.330Z,4.66
2023-01-19T15:07:44.148Z,4.69
2023-01-19T15:10:18.119Z,4.46
2023-01-19T15:12:47.418Z,4.47
2023-01-19T15:15:22.547Z,4.52
2023-01-19T15:17:50.792Z,4.60
2023-01-19T15:20:19.625Z,4.64
2023-01-19T15:22:47.795Z,4.70
2023-01-19T15:25:16.666Z,4.66
2023-01-19T15:27:45.269Z,4.79
2023-01-19T15:30:20.505Z,4.68
2023-01-19T15:32:48.973Z,4.63
2023-01-19T15:35:18.012Z,4.70
2023-01-19T15:37:45.875Z,4.74
2023-01-19T15:40:14.508Z,4.69
2023-01-19T15:42:42.472Z,4.63
2023-01-19T15:45:32.160Z,4.63
2023-01-19T15:47:59.875Z,4.59
2023-01-19T15:50:27.808Z,4.63
2023-01-19T15:52:55.295Z,4.70
2023-01-19T15:55:23.125Z,4.70
2023-01-19T15:57:50.669Z,4.72
2023-01-19T16:00:20.216Z,4.49
2023-01-19T16:02:50.070Z,4.54
2023-01-19T16:05:17.672Z,4.53
2023-01-19T16:07:45.409Z,4.55
2023-01-19T16:10:13.453Z,4.52
2023-01-19T16:12:40.995Z,4.61
2023-01-19T16:15:09.586Z,4.70
2023-01-19T16:17:38.625Z,4.71
2023-01-19T16:20:07.313Z,4.67
2023-01-19T16:22:35.054Z,4.66
2023-01-19T16:25:02.568Z,4.58
2023-01-19T16:27:30.521Z,4.67
2023-01-19T16:29:59.795Z,4.73
2023-01-19T16:32:27.305Z,4.70
2023-01-19T16:34:56.231Z,4.52
2023-01-19T16:37:23.725Z,4.56
2023-01-19T16:39:51.528Z,4.63
2023-01-19T16:42:19.312Z,4.58
2023-01-19T16:44:46.839Z,4.56
2023-01-19T16:47:14.335Z,4.57
2023-01-19T16:49:41.806Z,4.46
2023-01-19T16:52:10.682Z,4.53
2023-01-19T16:54:39.467Z,4.49
2023-01-19T16:57:06.997Z,4.44
2023-01-19T16:59:35.106Z,4.40
2023-01-19T17:02:03.125Z,4.35
2023-01-19T17:04:30.688Z,4.38
2023-01-19T17:06:58.553Z,4.38
2023-01-19T17:09:27.380Z,4.38
2023-01-19T17:11:54.897Z,4.18
2023-01-19T17:14:22.529Z,3.99
2023-01-19T17:16:50.778Z,3.99
2023-01-19T17:19:20.440Z,4.05
2023-01-19T17:21:49.544Z,4.08
2023-01-19T17:24:17.902Z,3.92
2023-01-19T17:26:48.575Z,4.07
2023-01-19T17:29:16.750Z,4.18
2023-01-19T17:31:45.818Z,4.23
2023-01-19T17:34:13.450Z,4.22
2023-01-19T17:36:40.971Z,4.28
2023-01-19T17:39:14.439Z,4.34
2023-01-19T17:41:42.018Z,4.29
2023-01-19T17:44:11.514Z,4.27
2023-01-19T17:46:39.743Z,4.30
2023-01-19T17:49:08.659Z,4.27
2023-01-19T17:51:36.409Z,4.25
2023-01-19T17:54:04.752Z,4.27
2023-01-19T17:56:36.740Z,4.32
2023-01-19T17:59:07.814Z,4.28
2023-01-19T18:01:39.746Z,4.31
2023-01-19T18:04:08.375Z,4.36
2023-01-19T18:06:35.921Z,4.39
2023-01-19T18:09:04.835Z,4.47
2023-01-19T18:11:32.334Z,4.46
2023-01-19T18:14:00.669Z,4.35
2023-01-19T18:16:29.958Z,4.27
2023-01-19T18:18:59.202Z,4.26
2023-01-19T18:21:28.706Z,4.25
2023-01-19T18:24:01.426Z,4.24
2023-01-19T18:26:29.654Z,4.23
2023-01-19T18:28:57.963Z,4.26
2023-01-19T18:31:26.868Z,4.28
2023-01-19T18:33:54.821Z,4.34
2023-01-19T18:36:23.854Z,4.34
2023-01-19T18:38:51.595Z,4.35
2023-01-19T18:41:20.853Z,4.41
2023-01-19T18:43:49.069Z,4.46
2023-01-19T18:46:17.338Z,4.34
2023-01-19T18:48:44.934Z,4.34
2023-01-19T18:51:14.856Z,4.36
2023-01-19T18:53:43.966Z,4.36
2023-01-19T18:56:13.490Z,4.33
2023-01-19T18:58:41.275Z,4.18
2023-01-19T19:01:20.093Z,4.13
2023-01-19T19:03:47.680Z,3.96
2023-01-19T19:06:16.685Z,3.99
2023-01-19T19:08:45.507Z,4.05
2023-01-19T19:11:14.223Z,4.12
2023-01-19T19:13:41.987Z,3.90
2023-01-19T19:16:11.535Z,4.05
2023-01-19T19:18:39.917Z,4.04
2023-01-19T19:21:08.474Z,4.00
2023-01-19T19:23:36.619Z,3.93
2023-01-19T19:26:07.290Z,4.03
2023-01-19T19:28:36.471Z,4.09
2023-01-19T19:31:08.333Z,4.16
2023-01-19T19:33:36.390Z,4.12
2023-01-19T19:36:04.578Z,4.22
2023-01-19T19:38:32.487Z,4.22
2023-01-19T19:41:05.295Z,4.12
2023-01-19T19:43:34.236Z,4.04
2023-01-19T19:46:03.233Z,3.99
2023-01-19T19:48:31.039Z,3.91
2023-01-19T19:51:17.087Z,3.89
2023-01-19T19:53:45.496Z,3.86
2023-01-19T19:56:14.228Z,3.91
2023-01-19T19:58:43.799Z,4.04
2023-01-19T20:01:12.374Z,3.94
2023-01-19T20:03:40.408Z,4.03
2023-01-19T20:06:09.891Z,3.99
2023-01-19T20:08:37.686Z,4.00
2023-01-19T20:11:07.377Z,3.99
2023-01-19T20:13:35.548Z,4.00
2023-01-19T20:16:05.985Z,3.99
2023-01-19T20:18:34.170Z,3.99
2023-01-19T20:21:01.739Z,3.97
2023-01-19T20:23:29.274Z,3.93
2023-01-19T20:25:56.755Z,4.07
2023-01-19T20:28:24.250Z,4.15
2023-01-19T20:30:51.925Z,4.05
2023-01-19T20:33:20.965Z,4.07
2023-01-19T20:35:48.444Z,4.07
2023-01-19T20:38:15.950Z,4.08
2023-01-19T20:40:43.389Z,4.10
2023-01-19T20:43:10.867Z,4.10
2023-01-19T20:45:38.353Z,4.20
2023-01-19T20:48:06.210Z,4.27
2023-01-19T20:50:35.237Z,4.22
2023-01-19T20:53:02.734Z,4.24
2023-01-19T20:55:33.350Z,4.19
2023-01-19T20:58:01.362Z,4.20
2023-01-19T21:00:29.125Z,4.20
2023-01-19T21:02:56.978Z,4.25
2023-01-19T21:05:25.226Z,4.24
2023-01-19T21:07:54.270Z,4.25
2023-01-19T21:10:22.880Z,4.10
2023-01-19T21:12:50.380Z,4.22
2023-01-19T21:15:18.581Z,4.23
2023-01-19T21:17:46.139Z,4.19
2023-01-19T21:20:14.198Z,4.19
2023-01-19T21:22:41.663Z,4.20
2023-01-19T21:25:11.473Z,4.09
2023-01-19T21:27:39.141Z,4.00
2023-01-19T21:30:07.702Z,4.04
2023-01-19T21:32:36.341Z,4.07
2023-01-19T21:35:03.999Z,4.09
2023-01-19T21:37:31.670Z,4.19
2023-01-19T21:39:59.148Z,4.17
2023-01-19T21:42:28.003Z,4.24
2023-01-19T21:44:55.493Z,4.26
2023-01-19T21:47:22.980Z,4.31
2023-01-19T21:49:50.460Z,4.31
2023-01-19T21:52:17.941Z,4.16
2023-01-19T21:54:45.391Z,4.20
2023-01-19T21:57:15.042Z,4.26
2023-01-19T21:59:43.880Z,4.36
2023-01-19T22:02:12.510Z,4.30
2023-01-19T22:04:40.551Z,4.36
2023-01-19T22:07:08.159Z,4.41
2023-01-19T22:09:35.863Z,4.42
2023-01-19T22:12:03.614Z,4.41
2023-01-19T22:14:31.090Z,4.45
2023-01-19T22:16:59.945Z,4.29
2023-01-19T22:19:27.743Z,4.38
2023-01-19T22:21:55.288Z,4.44
2023-01-19T22:24:22.755Z,4.50
2023-01-19T22:26:50.287Z,4.48
2023-01-19T22:29:17.783Z,4.48
2023-01-19T22:31:45.741Z,4.50
2023-01-19T22:34:17.132Z,4.53
2023-01-19T22:36:44.637Z,4.61
2023-01-19T22:39:13.465Z,4.55
2023-01-19T22:41:42.317Z,4.52
2023-01-19T22:44:12.273Z,4.58
2023-01-19T22:46:40.076Z,4.67
2023-01-19T22:49:09.001Z,4.67
2023-01-19T22:51:37.841Z,4.60
2023-01-19T22:54:05.720Z,4.60
2023-01-19T22:56:34.768Z,4.59
2023-01-19T22:59:03.058Z,4.60
2023-01-19T23:01:33.301Z,4.61
2023-01-19T23:04:02.057Z,4.57
2023-01-19T23:06:31.051Z,4.35
2023-01-19T23:09:01.273Z,4.20
2023-01-19T23:11:31.066Z,4.11
2023-01-19T23:13:58.917Z,4.22
2023-01-19T23:16:27.007Z,4.26
2023-01-19T23:18:55.688Z,4.23
2023-01-19T23:21:25.177Z,4.23
2023-01-19T23:23:54.567Z,4.10
2023-01-19T23:26:24.520Z,4.07
2023-01-19T23:28:55.792Z,3.97
2023-01-19T23:31:26.133Z,4.03
2023-01-19T23:33:55.238Z,3.93
2023-01-19T23:36:24.739Z,3.98
2023-01-19T23:38:54.259Z,4.14
2023-01-19T23:41:24.234Z,3.97
2023-01-19T23:43:51.807Z,4.00
2023-01-19T23:46:20.499Z,4.18
2023-01-19T23:48:48.551Z,4.20
2023-01-19T23:51:18.259Z,4.16
2023-01-19T23:53:46.369Z,4.29
2023-01-19T23:56:17.360Z,4.20
2023-01-19T23:58:47.531Z,4.29
